Anna Maria, Florida
Current Conditions -  °F | °C
As of 6:53 AM on Thursday 29 Jan 2015 (Local Time) from KSRQ Reporting Station
Clear Clear  
Wind Chill: 40°   Ceiling: Unl
Heat Index: 44°   Visibility: 10mi
Dew Point: 39°   Wind: 8mph
Humidity: 82%   Direction: 50°NE
Pressure: 30.26"   Gusts: NA
Location:  27.53°N, 82.73°W
Report Text: KSRQ 291153Z 05007KT 10SM CLR 07/04 A3026 RMK AO2 SLP248 T00670039 10078 20061 53005
Loading
Personal Weather Stations






























Interactive Weather Map New forecast layout! Learn more

10-Day Weather Forecast

Advertisements
Track Severe Weather on mobile